createdAt,value
2022-10-28T00:00:52.267Z,101104.81
2022-10-28T00:03:19.003Z,101102.41
2022-10-28T00:05:45.971Z,101103.13
2022-10-28T00:08:12.381Z,101093.31
2022-10-28T00:10:38.745Z,101093.06
2022-10-28T00:13:05.148Z,101084.72
2022-10-28T00:15:34.423Z,101091.84
2022-10-28T00:18:00.815Z,101087.72
2022-10-28T00:20:27.240Z,101086.16
2022-10-28T00:22:53.601Z,101089.31
2022-10-28T00:25:24.849Z,101087.72
2022-10-28T00:27:52.796Z,101089.09
2022-10-28T00:30:19.779Z,101083.22
2022-10-28T00:32:46.157Z,101083.78
2022-10-28T00:35:12.514Z,101080.28
2022-10-28T00:37:38.870Z,101081.22
2022-10-28T00:40:05.587Z,101080.09
2022-10-28T00:42:31.942Z,101073.91
2022-10-28T00:45:00.148Z,101077.25
2022-10-28T00:47:55.241Z,101081.50
2022-10-28T00:50:47.560Z,101079.47
2022-10-28T00:53:17.146Z,101070.31
2022-10-28T00:55:44.500Z,101065.94
2022-10-28T00:58:11.654Z,101066.34
2022-10-28T01:00:38.045Z,101058.69
2022-10-28T01:03:04.564Z,101055.63
2022-10-28T01:05:32.604Z,101052.16
2022-10-28T01:08:01.604Z,101048.19
2022-10-28T01:10:58.425Z,101034.25
2022-10-28T01:13:34.622Z,101038.25
2022-10-28T01:16:06.936Z,101034.06
2022-10-28T01:19:00.921Z,101033.88
2022-10-28T01:21:43.637Z,101032.06
2022-10-28T01:24:09.976Z,101028.44
2022-10-28T01:27:01.094Z,101033.53
2022-10-28T01:29:48.480Z,101033.75
2022-10-28T01:32:26.549Z,101023.59
2022-10-28T01:35:01.450Z,101026.84
2022-10-28T01:37:34.325Z,101022.09
2022-10-28T01:40:09.701Z,101020.09
2022-10-28T01:42:54.275Z,101020.53
2022-10-28T01:45:29.001Z,101019.16
2022-10-28T01:47:58.899Z,101014.31
2022-10-28T01:50:29.605Z,101015.25
2022-10-28T01:53:00.361Z,101016.09
2022-10-28T01:55:30.188Z,101020.25
2022-10-28T01:57:59.167Z,101026.19
2022-10-28T02:00:26.426Z,101038.50
2022-10-28T02:02:53.326Z,101036.50
2022-10-28T02:05:49.008Z,101041.63
2022-10-28T02:08:18.473Z,101038.50
2022-10-28T02:11:10.335Z,101028.66
2022-10-28T02:14:21.110Z,101021.53
2022-10-28T02:16:56.212Z,101023.41
2022-10-28T02:19:36.110Z,101019.72
2022-10-28T02:22:16.240Z,101014.56
2022-10-28T02:24:51.659Z,101013.31
2022-10-28T02:27:30.957Z,101004.75
2022-10-28T02:30:03.912Z,101004.75
2022-10-28T02:32:32.275Z,101011.53
2022-10-28T02:35:01.053Z,101003.38
2022-10-28T02:37:30.543Z,101004.47
2022-10-28T02:40:00.094Z,101013.41
2022-10-28T02:42:29.508Z,101015.03
2022-10-28T02:45:09.601Z,101012.41
2022-10-28T02:47:37.741Z,101014.63
2022-10-28T02:50:07.901Z,101017.44
2022-10-28T02:52:34.720Z,101012.88
2022-10-28T02:55:04.639Z,101022.69
2022-10-28T02:57:35.097Z,101021.63
2022-10-28T03:00:06.485Z,101017.44
2022-10-28T03:02:33.004Z,101018.25
2022-10-28T03:04:59.381Z,101010.00
2022-10-28T03:07:25.807Z,101007.78
2022-10-28T03:09:52.191Z,100998.13
2022-10-28T03:12:18.553Z,100991.59
2022-10-28T03:14:44.913Z,100995.44
2022-10-28T03:17:11.314Z,100995.72
2022-10-28T03:19:37.680Z,100993.28
2022-10-28T03:22:04.102Z,101000.72
2022-10-28T03:24:30.468Z,100989.19
2022-10-28T03:26:57.024Z,100988.22
2022-10-28T03:29:23.440Z,100991.84
2022-10-28T03:31:49.816Z,100983.28
2022-10-28T03:34:16.232Z,100978.00
2022-10-28T03:36:42.723Z,100978.66
2022-10-28T03:39:09.093Z,100987.31
2022-10-28T03:41:35.502Z,100986.19
2022-10-28T03:44:01.889Z,100988.13
2022-10-28T03:46:29.156Z,100989.34
2022-10-28T03:48:57.607Z,100991.28
2022-10-28T03:51:24.102Z,100985.03
2022-10-28T03:53:50.504Z,100979.38
2022-10-28T03:56:16.900Z,100972.50
2022-10-28T03:58:43.322Z,100967.38
2022-10-28T04:01:09.867Z,100972.63
2022-10-28T04:03:36.345Z,100968.66
2022-10-28T04:06:02.718Z,100973.41
2022-10-28T04:08:29.129Z,100975.47
2022-10-28T04:10:55.514Z,100980.75
2022-10-28T04:13:21.942Z,100976.63
2022-10-28T04:15:48.317Z,100975.13
2022-10-28T04:18:14.715Z,100972.13
2022-10-28T04:20:41.083Z,100971.78
2022-10-28T04:23:08.268Z,100970.81
2022-10-28T04:25:35.885Z,100970.97
2022-10-28T04:28:02.252Z,100974.53
2022-10-28T04:30:28.624Z,100976.28
2022-10-28T04:32:55.031Z,100965.09
2022-10-28T04:35:21.461Z,100967.53
2022-10-28T04:37:47.990Z,100967.09
2022-10-28T04:40:14.372Z,100974.06
2022-10-28T04:42:40.787Z,100974.22
2022-10-28T04:45:08.161Z,100970.63
2022-10-28T04:47:34.757Z,100974.22
2022-10-28T04:50:01.299Z,100977.41
2022-10-28T04:52:27.701Z,100973.06
2022-10-28T04:54:54.063Z,100979.84
2022-10-28T04:57:20.434Z,100978.00
2022-10-28T04:59:46.791Z,100976.91
2022-10-28T05:02:13.434Z,100977.41
2022-10-28T05:04:39.945Z,100968.75
2022-10-28T05:07:06.872Z,100974.88
2022-10-28T05:09:33.256Z,100983.28
2022-10-28T05:11:59.610Z,100973.25
2022-10-28T05:14:26.124Z,100977.75
2022-10-28T05:16:52.480Z,100986.84
2022-10-28T05:19:18.912Z,100986.34
2022-10-28T05:21:45.314Z,100983.50
2022-10-28T05:24:11.721Z,100998.44
2022-10-28T05:26:38.071Z,100990.84
2022-10-28T05:29:04.440Z,100998.75
2022-10-28T05:31:30.800Z,100985.28
2022-10-28T05:33:57.163Z,100986.59
2022-10-28T05:36:23.517Z,100988.09
2022-10-28T05:38:49.921Z,100983.34
2022-10-28T05:41:16.320Z,100983.47
2022-10-28T05:43:42.692Z,100979.81
2022-10-28T05:46:09.425Z,100982.28
2022-10-28T05:48:35.788Z,100981.78
2022-10-28T05:51:02.141Z,100993.19
2022-10-28T05:53:28.517Z,100991.81
2022-10-28T05:55:54.930Z,100995.06
2022-10-28T05:58:21.302Z,100992.81
2022-10-28T06:00:47.652Z,100999.47
2022-10-28T06:03:14.067Z,101002.44
2022-10-28T06:05:44.490Z,101007.31
2022-10-28T06:08:12.349Z,101001.97
2022-10-28T06:10:39.369Z,100998.84
2022-10-28T06:13:04.198Z,100994.69
2022-10-28T06:15:30.791Z,100994.13
2022-10-28T06:17:57.174Z,100992.63
2022-10-28T06:20:23.572Z,100997.22
2022-10-28T06:22:54.135Z,100996.97
2022-10-28T06:25:21.644Z,101005.97
2022-10-28T06:27:55.226Z,101001.56
2022-10-28T06:30:22.703Z,101000.66
2022-10-28T06:32:49.121Z,100995.06
2022-10-28T06:35:16.024Z,101004.13
2022-10-28T06:37:42.537Z,101007.78
2022-10-28T06:40:09.150Z,101002.47
2022-10-28T06:42:35.509Z,101005.50
2022-10-28T06:45:02.236Z,101009.34
2022-10-28T06:47:30.104Z,101011.13
2022-10-28T06:49:56.590Z,101008.44
2022-10-28T06:52:22.973Z,101007.53
2022-10-28T06:54:49.342Z,100998.84
2022-10-28T06:57:15.691Z,101006.50
2022-10-28T06:59:42.136Z,101011.34
2022-10-28T07:02:11.593Z,101010.66
2022-10-28T07:04:38.297Z,101012.22
2022-10-28T07:07:04.652Z,101015.50
2022-10-28T07:09:31.071Z,101007.97
2022-10-28T07:12:02.260Z,101019.28
2022-10-28T07:14:31.955Z,101010.56
2022-10-28T07:16:58.320Z,101011.03
2022-10-28T07:19:24.690Z,101021.50
2022-10-28T07:21:51.298Z,101029.47
2022-10-28T07:24:17.845Z,101027.84
2022-10-28T07:26:44.271Z,101036.44
2022-10-28T07:29:10.673Z,101033.25
2022-10-28T07:31:37.037Z,101033.63
2022-10-28T07:34:03.485Z,101028.97
2022-10-28T07:36:29.881Z,101027.25
2022-10-28T07:38:56.311Z,101025.00
2022-10-28T07:41:23.272Z,101030.47
2022-10-28T07:43:50.202Z,101035.06
2022-10-28T07:46:17.648Z,101031.00
2022-10-28T07:48:44.074Z,101031.69
2022-10-28T07:51:12.348Z,101035.56
2022-10-28T07:53:39.093Z,101036.09
2022-10-28T07:56:13.432Z,101041.25
2022-10-28T07:58:40.805Z,101043.13
2022-10-28T08:01:08.550Z,101046.44
2022-10-28T08:03:39.087Z,101035.56
2022-10-28T08:06:11.620Z,101029.22
2022-10-28T08:08:38.610Z,101030.19
2022-10-28T08:11:09.536Z,101023.28
2022-10-28T08:13:39.440Z,101025.44
2022-10-28T08:16:08.092Z,101029.44
2022-10-28T08:18:35.612Z,101016.00
2022-10-28T08:21:02.985Z,101018.06
2022-10-28T08:23:29.926Z,101024.38
2022-10-28T08:25:56.491Z,101033.53
2022-10-28T08:28:23.928Z,101026.63
2022-10-28T08:31:04.308Z,101029.44
2022-10-28T08:33:34.982Z,101026.88
2022-10-28T08:36:01.353Z,101023.31
2022-10-28T08:38:27.791Z,101026.66
2022-10-28T08:41:15.741Z,101025.34
2022-10-28T08:43:57.460Z,101027.84
2022-10-28T08:47:00.542Z,101023.59
2022-10-28T08:49:27.382Z,101023.44
2022-10-28T08:52:01.173Z,101024.66
2022-10-28T08:54:32.780Z,101020.59
2022-10-28T08:57:01.386Z,101019.94
2022-10-28T08:59:37.089Z,101016.41
2022-10-28T09:02:11.854Z,101014.53
2022-10-28T09:04:44.773Z,101010.09
2022-10-28T09:07:18.025Z,101005.38
2022-10-28T09:09:45.627Z,101008.97
2022-10-28T09:12:34.908Z,101004.13
2022-10-28T09:15:32.184Z,101005.47
2022-10-28T09:18:20.149Z,100999.13
2022-10-28T09:20:56.594Z,101001.28
2022-10-28T09:23:56.059Z,100993.22
2022-10-28T09:26:25.124Z,100993.63
2022-10-28T09:29:04.704Z,101003.47
2022-10-28T09:31:41.053Z,101009.25
2022-10-28T09:34:17.516Z,101005.47
2022-10-28T09:36:49.703Z,101002.25
2022-10-28T09:39:26.835Z,101004.94
2022-10-28T09:41:54.973Z,101006.06
2022-10-28T09:44:38.624Z,100996.13
2022-10-28T09:47:14.285Z,100993.44
2022-10-28T09:49:40.974Z,101001.81
2022-10-28T09:52:07.242Z,100992.19
2022-10-28T09:54:40.891Z,100991.31
2022-10-28T09:57:07.420Z,100995.00
2022-10-28T09:59:34.340Z,100994.66
2022-10-28T10:02:00.999Z,100989.00
2022-10-28T10:04:31.109Z,100990.63
2022-10-28T10:07:11.069Z,100990.22
2022-10-28T10:09:38.634Z,100984.38
2022-10-28T10:12:07.384Z,100989.16
2022-10-28T10:14:39.139Z,100995.78
2022-10-28T10:17:10.318Z,100985.38
2022-10-28T10:20:04.690Z,100999.97
2022-10-28T10:22:42.806Z,100982.78
2022-10-28T10:25:29.861Z,100985.13
2022-10-28T10:28:01.856Z,100985.03
2022-10-28T10:30:45.304Z,100985.66
2022-10-28T10:33:33.992Z,100992.84
2022-10-28T10:36:09.533Z,100991.88
2022-10-28T10:38:36.345Z,100991.88
2022-10-28T10:41:03.166Z,100991.56
2022-10-28T10:43:31.761Z,100992.06
2022-10-28T10:46:16.288Z,100996.31
2022-10-28T10:48:42.683Z,100989.47
2022-10-28T10:51:18.325Z,100991.59
2022-10-28T10:53:48.586Z,100988.09
2022-10-28T10:56:23.839Z,100992.59
2022-10-28T10:58:52.468Z,100992.97
2022-10-28T11:01:22.230Z,100987.34
2022-10-28T11:03:55.088Z,100995.84
2022-10-28T11:06:24.888Z,100997.00
2022-10-28T11:08:58.949Z,100992.19
2022-10-28T11:11:36.843Z,100987.81
2022-10-28T11:14:08.297Z,100980.03
2022-10-28T11:17:06.413Z,100977.47
2022-10-28T11:19:37.710Z,100979.25
2022-10-28T11:22:25.941Z,100969.03
2022-10-28T11:25:32.487Z,100961.53
2022-10-28T11:28:24.982Z,100965.13
2022-10-28T11:30:59.009Z,100954.03
2022-10-28T11:33:40.030Z,100954.22
2022-10-28T11:36:35.526Z,100959.66
2022-10-28T11:39:18.935Z,100941.63
2022-10-28T11:42:15.179Z,100956.03
2022-10-28T11:44:59.211Z,100942.66
2022-10-28T11:47:41.138Z,100939.38
2022-10-28T11:50:22.313Z,100937.00
2022-10-28T11:53:00.839Z,100931.06
2022-10-28T11:55:39.746Z,100937.94
2022-10-28T11:58:20.895Z,100933.91
2022-10-28T12:00:54.149Z,100934.59
2022-10-28T12:03:47.295Z,100922.84
2022-10-28T12:06:20.012Z,100926.56
2022-10-28T12:08:52.392Z,100921.13
2022-10-28T12:11:32.321Z,100919.53
2022-10-28T12:14:32.856Z,100918.47
2022-10-28T12:17:06.411Z,100916.00
2022-10-28T12:19:38.245Z,100918.25
2022-10-28T12:22:10.599Z,100922.56
2022-10-28T12:24:37.786Z,100909.56
2022-10-28T12:27:15.437Z,100916.25
2022-10-28T12:29:48.093Z,100904.50
2022-10-28T12:32:24.956Z,100900.16
2022-10-28T12:35:04.254Z,100898.53
2022-10-28T12:37:53.752Z,100908.63
2022-10-28T12:40:23.039Z,100896.16
2022-10-28T12:42:57.572Z,100889.63
2022-10-28T12:45:24.938Z,100882.59
2022-10-28T12:47:57.942Z,100886.28
2022-10-28T12:50:44.750Z,100881.00
2022-10-28T12:53:17.097Z,100879.47
2022-10-28T12:55:55.667Z,100877.31
2022-10-28T12:58:38.665Z,100875.50
2022-10-28T13:01:17.293Z,100873.81
2022-10-28T13:03:43.825Z,100870.53
2022-10-28T13:06:15.882Z,100868.97
2022-10-28T13:08:51.329Z,100864.47
2022-10-28T13:11:20.751Z,100864.47
2022-10-28T13:14:33.480Z,100866.66
2022-10-28T13:17:14.461Z,100866.44
2022-10-28T13:20:04.592Z,100868.38
2022-10-28T13:22:56.494Z,100869.91
2022-10-28T13:25:26.083Z,100874.72
2022-10-28T13:27:57.444Z,100869.34
2022-10-28T13:30:24.125Z,100868.50
2022-10-28T13:33:08.883Z,100870.78
2022-10-28T13:35:35.616Z,100871.09
2022-10-28T13:38:02.739Z,100866.31
2022-10-28T13:40:32.152Z,100869.00
2022-10-28T13:42:59.980Z,100875.84
2022-10-28T13:45:55.103Z,100881.28
2022-10-28T13:48:42.727Z,100879.31
2022-10-28T13:51:08.977Z,100885.53
2022-10-28T13:53:47.658Z,100887.28
2022-10-28T13:56:19.663Z,100895.94
2022-10-28T13:58:51.675Z,100889.03
2022-10-28T14:01:36.786Z,100896.19
2022-10-28T14:04:04.582Z,100898.22
2022-10-28T14:06:32.391Z,100902.06
2022-10-28T14:08:58.993Z,100900.16
2022-10-28T14:11:29.066Z,100896.19
2022-10-28T14:13:58.518Z,100894.59
2022-10-28T14:16:37.563Z,100901.53
2022-10-28T14:19:07.159Z,100899.56
2022-10-28T14:21:53.498Z,100896.28
2022-10-28T14:24:57.316Z,100903.59
2022-10-28T14:27:28.687Z,100900.19
2022-10-28T14:29:54.974Z,100900.84
2022-10-28T14:32:50.492Z,100913.78
2022-10-28T14:35:25.487Z,100915.31
2022-10-28T14:38:04.143Z,100920.81
2022-10-28T14:40:50.727Z,100915.56
2022-10-28T14:43:51.766Z,100917.13
2022-10-28T14:46:43.967Z,100920.72
2022-10-28T14:49:27.512Z,100924.16
2022-10-28T14:51:54.050Z,100935.09
2022-10-28T14:54:38.226Z,100936.25
2022-10-28T14:57:06.231Z,100938.53
2022-10-28T14:59:37.820Z,100941.72
2022-10-28T15:02:15.089Z,100934.41
2022-10-28T15:04:43.457Z,100930.47
2022-10-28T15:07:18.384Z,100945.13
2022-10-28T15:09:47.346Z,100942.78
2022-10-28T15:12:16.661Z,100947.09
2022-10-28T15:14:46.004Z,100958.56
2022-10-28T15:17:44.905Z,100955.25
2022-10-28T15:20:22.276Z,100969.84
2022-10-28T15:22:49.089Z,100968.22
2022-10-28T15:25:17.915Z,100961.88
2022-10-28T15:27:45.296Z,100966.94
2022-10-28T15:30:16.174Z,100965.03
2022-10-28T15:32:42.545Z,100969.38
2022-10-28T15:35:44.883Z,100974.69
2022-10-28T15:38:29.512Z,100987.44
2022-10-28T15:40:55.963Z,100983.81
2022-10-28T15:43:25.449Z,100997.41
2022-10-28T15:45:52.161Z,101001.81
2022-10-28T15:48:27.640Z,101005.13
2022-10-28T15:51:14.595Z,101002.13
2022-10-28T15:53:42.343Z,101007.25
2022-10-28T15:56:17.852Z,101023.84
2022-10-28T15:58:46.368Z,101017.91
2022-10-28T16:01:38.062Z,101018.28
2022-10-28T16:04:33.633Z,101024.28
2022-10-28T16:07:07.052Z,101026.03
2022-10-28T16:09:42.281Z,101036.47
2022-10-28T16:12:20.153Z,101029.19
2022-10-28T16:14:56.038Z,101042.03
2022-10-28T16:17:26.644Z,101045.28
2022-10-28T16:19:55.558Z,101045.81
2022-10-28T16:22:23.462Z,101044.19
2022-10-28T16:24:50.210Z,101045.44
2022-10-28T16:27:21.634Z,101043.31
2022-10-28T16:29:48.515Z,101046.00
2022-10-28T16:32:16.488Z,101058.91
2022-10-28T16:34:43.128Z,101058.06
2022-10-28T16:37:30.725Z,101067.47
2022-10-28T16:40:00.105Z,101075.91
2022-10-28T16:42:26.663Z,101071.66
2022-10-28T16:44:53.082Z,101077.94
2022-10-28T16:47:21.636Z,101088.25
2022-10-28T16:49:54.511Z,101088.84
2022-10-28T16:52:29.007Z,101089.41
2022-10-28T16:54:56.174Z,101090.75
2022-10-28T16:59:50.569Z,101094.28
2022-10-28T17:02:22.112Z,101091.09
2022-10-28T17:04:48.579Z,101092.72
2022-10-28T17:07:16.337Z,101101.34
2022-10-28T17:09:43.123Z,101107.19
2022-10-28T17:12:14.407Z,101099.91
2022-10-28T17:14:41.035Z,101097.03
2022-10-28T17:17:07.629Z,101105.81
2022-10-28T17:19:34.047Z,101099.66
2022-10-28T17:22:00.409Z,101102.81
2022-10-28T17:24:26.810Z,101100.09
2022-10-28T17:26:53.244Z,101106.00
2022-10-28T17:29:19.611Z,101110.84
2022-10-28T17:31:45.977Z,101113.22
2022-10-28T17:34:12.337Z,101110.84
2022-10-28T17:36:38.710Z,101123.84
2022-10-28T17:39:05.238Z,101114.66
2022-10-28T17:41:31.678Z,101120.31
2022-10-28T17:43:58.212Z,101117.03
2022-10-28T17:46:24.579Z,101124.50
2022-10-28T17:48:50.987Z,101138.47
2022-10-28T17:51:17.550Z,101135.44
2022-10-28T17:53:43.913Z,101151.22
2022-10-28T17:56:10.344Z,101154.94
2022-10-28T17:58:36.734Z,101147.94
2022-10-28T18:01:07.672Z,101150.50
2022-10-28T18:03:38.938Z,101158.78
2022-10-28T18:06:07.649Z,101155.88
2022-10-28T18:08:41.783Z,101149.69
2022-10-28T18:11:10.254Z,101152.13
2022-10-28T18:13:38.729Z,101147.00
2022-10-28T18:16:08.968Z,101149.28
2022-10-28T18:18:41.007Z,101155.25
2022-10-28T18:21:10.021Z,101159.91
2022-10-28T18:23:36.449Z,101158.63
2022-10-28T18:26:14.889Z,101162.59
2022-10-28T18:28:42.878Z,101155.50
2022-10-28T18:31:14.051Z,101163.97
2022-10-28T18:33:42.916Z,101160.41
2022-10-28T18:36:18.441Z,101162.59
2022-10-28T18:38:44.936Z,101165.50
2022-10-28T18:41:16.677Z,101158.94
2022-10-28T18:43:43.058Z,101165.88
2022-10-28T18:46:09.681Z,101170.09
2022-10-28T18:48:36.586Z,101168.44
2022-10-28T18:51:09.400Z,101178.78
2022-10-28T18:53:37.160Z,101183.16
2022-10-28T18:56:07.480Z,101183.09
2022-10-28T18:58:34.160Z,101183.16
2022-10-28T19:01:12.722Z,101188.16
2022-10-28T19:03:39.689Z,101194.22
2022-10-28T19:06:08.523Z,101202.28
2022-10-28T19:08:34.930Z,101206.97
2022-10-28T19:11:01.927Z,101205.88
2022-10-28T19:13:28.362Z,101203.13
2022-10-28T19:15:54.795Z,101205.31
2022-10-28T19:18:21.816Z,101214.00
2022-10-28T19:20:48.272Z,101208.75
2022-10-28T19:23:14.690Z,101211.81
2022-10-28T19:25:41.148Z,101219.53
2022-10-28T19:28:07.556Z,101217.94
2022-10-28T19:30:34.713Z,101224.09
2022-10-28T19:33:01.111Z,101222.72
2022-10-28T19:35:27.475Z,101215.66
2022-10-28T19:37:53.867Z,101225.47
2022-10-28T19:40:20.838Z,101234.22
2022-10-28T19:42:47.253Z,101229.47
2022-10-28T19:45:13.726Z,101234.50
2022-10-28T19:47:40.094Z,101234.22
2022-10-28T19:50:07.016Z,101234.13
2022-10-28T19:52:33.409Z,101234.28
2022-10-28T19:54:59.777Z,101232.63
2022-10-28T19:57:26.182Z,101243.66
2022-10-28T19:59:52.537Z,101251.38
2022-10-28T20:02:19.048Z,101250.38
2022-10-28T20:04:45.581Z,101259.06
2022-10-28T20:07:11.952Z,101260.06
2022-10-28T20:09:38.325Z,101259.44
2022-10-28T20:12:04.896Z,101272.22
2022-10-28T20:14:32.531Z,101273.56
2022-10-28T20:17:05.507Z,101273.25
2022-10-28T20:19:33.104Z,101276.31
2022-10-28T20:21:59.466Z,101277.31
2022-10-28T20:24:26.346Z,101272.50
2022-10-28T20:26:52.715Z,101280.91
2022-10-28T20:29:19.105Z,101281.31
2022-10-28T20:31:45.589Z,101279.50
2022-10-28T20:34:11.952Z,101283.84
2022-10-28T20:36:40.428Z,101282.56
2022-10-28T20:39:13.990Z,101282.56
2022-10-28T20:41:41.481Z,101285.28
2022-10-28T20:44:08.121Z,101289.28
2022-10-28T20:46:34.669Z,101292.41
2022-10-28T20:49:01.238Z,101302.66
2022-10-28T20:51:29.472Z,101294.81
2022-10-28T20:53:55.970Z,101295.28
2022-10-28T20:56:24.195Z,101286.41
2022-10-28T20:58:50.749Z,101289.72
2022-10-28T21:01:25.888Z,101294.72
2022-10-28T21:03:57.141Z,101308.09
2022-10-28T21:06:24.019Z,101312.69
2022-10-28T21:08:50.756Z,101313.97
2022-10-28T21:11:17.547Z,101320.72
2022-10-28T21:13:46.085Z,101320.56
2022-10-28T21:16:13.292Z,101315.94
2022-10-28T21:18:40.071Z,101314.38
2022-10-28T21:21:06.927Z,101312.56
2022-10-28T21:23:33.373Z,101316.53
2022-10-28T21:26:04.535Z,101330.22
2022-10-28T21:28:32.053Z,101328.25
2022-10-28T21:31:06.566Z,101333.44
2022-10-28T21:33:34.315Z,101325.88
2022-10-28T21:36:03.522Z,101325.94
2022-10-28T21:38:30.235Z,101333.66
2022-10-28T21:41:12.797Z,101333.50
2022-10-28T21:43:42.382Z,101320.44
2022-10-28T21:46:08.956Z,101332.31
2022-10-28T21:48:36.252Z,101331.59
2022-10-28T21:51:08.506Z,101333.72
2022-10-28T21:53:38.622Z,101342.72
2022-10-28T21:56:08.336Z,101341.84
2022-10-28T21:58:36.414Z,101343.50
2022-10-28T22:01:27.008Z,101348.41
2022-10-28T22:03:55.160Z,101345.47
2022-10-28T22:06:21.802Z,101345.19
2022-10-28T22:08:48.182Z,101344.28
2022-10-28T22:11:19.694Z,101352.16
2022-10-28T22:13:47.479Z,101357.56
2022-10-28T22:16:15.880Z,101358.03
2022-10-28T22:18:42.992Z,101361.13
2022-10-28T22:21:11.783Z,101358.75
2022-10-28T22:23:38.276Z,101355.34
2022-10-28T22:26:06.341Z,101347.66
2022-10-28T22:28:32.819Z,101353.31
2022-10-28T22:31:03.667Z,101351.66
2022-10-28T22:33:30.313Z,101347.28
2022-10-28T22:36:01.276Z,101354.19
2022-10-28T22:38:28.158Z,101348.28
2022-10-28T22:41:13.734Z,101361.31
2022-10-28T22:43:40.987Z,101355.50
2022-10-28T22:46:08.054Z,101360.56
2022-10-28T22:48:34.503Z,101356.41
2022-10-28T22:51:00.877Z,101363.94
2022-10-28T22:53:27.421Z,101368.09
2022-10-28T22:55:54.254Z,101352.31
2022-10-28T22:58:21.325Z,101357.31
2022-10-28T23:00:48.129Z,101360.34
2022-10-28T23:03:14.568Z,101366.66
2022-10-28T23:05:41.304Z,101360.44
2022-10-28T23:08:07.940Z,101363.22
2022-10-28T23:10:34.338Z,101357.91
2022-10-28T23:13:02.107Z,101359.44
2022-10-28T23:15:29.160Z,101354.34
2022-10-28T23:17:56.313Z,101350.28
2022-10-28T23:20:24.597Z,101349.31
2022-10-28T23:22:51.135Z,101351.66
2022-10-28T23:25:17.496Z,101359.44
2022-10-28T23:27:44.308Z,101357.75
2022-10-28T23:30:12.771Z,101360.00
2022-10-28T23:32:39.783Z,101371.00
2022-10-28T23:35:07.116Z,101361.47
2022-10-28T23:37:33.730Z,101371.56
2022-10-28T23:40:00.150Z,101381.13
2022-10-28T23:42:26.578Z,101371.44
2022-10-28T23:44:52.936Z,101373.72
2022-10-28T23:47:19.317Z,101381.44
2022-10-28T23:49:45.726Z,101381.63
2022-10-28T23:52:12.109Z,101385.03
2022-10-28T23:54:38.469Z,101392.63
2022-10-28T23:57:04.910Z,101391.75
2022-10-28T23:59:31.301Z,101397.75
